עמוד ראשי
METAR-TAF:

METAR-TAF

שדות תעופה :

Benbecula, סקוטלנד

קו רוחב: 57-28N, קו אורך: 007-22W, גובה: 6מטר

תצפית מזג אוויר נוכחית

הדו"ח נערך לפני 31דקות, בשעה 15:20 UTC
רוח 24קשר מכיוון דרום/דרום-מערב
טמפרטורת 18 צלסיוס
לחות 77%
לחץ 1011 hPa
ראות 10 קילומטר או יותר

METAR: EGPL 241520Z AUTO 21024KT 9999 BKN009/// 18/14 Q1011

זמן: 16:51 (15:51 UTC)

תחזית

הדו"ח נערך לפני 1 שעות ו 50דקות, בשעה 14:01 UTC
תחזית בתוקף מ 24 ב 15 UTC עד 24 ב 17 UTC
רוח 22קשר מכיוון דרום/דרום-מערב עם משבים עד 34קשר
ראות 10 קילומטר או יותר
עננים בינוניים בגובה 1500רגל
זמנית מ -
24 ב 15 UTC עד 24 ב 17 UTC
עננים בינוניים בגובה 1000רגל
הסתברות 30% :
זמנית מ -
24 ב 15 UTC עד 24 ב 17 UTC
ראות: 2000מטר
עננים בינוניים בגובה 100רגל
טפטוף קל, אד,

TAF: EGPL 241401Z 2415/2417 20022G34KT 9999 BKN015 TEMPO 2415/2417 BKN010 PROB30 TEMPO 2415/2417 2000 -DZ BR BKN001

תצפיות ותחזיות מזג אוויר לגבי יותר מ- 4,000 שדות תעופה ברחבי העולם. דוחות METAR ו- TAF.

התחנות הזמינות מסומנות בנקודות צהובות ואדומות על גבי המפה.

העבר את העכבר לנקודה הצבעונית על מנת לראות את שם התחנה.

לאחר מכן, לחץ כדי לראות את תוכן ואת תחזיות מזג האוויר.

כדי לשנות את המפה: לחץ על הכפתורים הירוקים עם הפלוס השחור כדי להתקרב; על הכפתור הירוק עם המקף כדי להתרחק; או בחיצים הירוקים למפות סמוכות.


METAR-TAF: